KGYR/GYR METAR and TAF weather

Enter ICAO airport designator
Station Type Date Time Source
KGYR METAR 2019/12/06 23:47 UTC NOAA

KGYR 062347Z 26003KT 10SM BKN200 BKN250 19/09 A3014


Station Type Date Time Source
KGYR Decoded METAR 2019/12/06 23:47 UTC NOAA

Goodyear Municipal, AZ, United States (KGYR) 33-25N 112-23W
Dec 06, 2019 - 06:47 PM EST / 2019.12.06 2347 UTC
Wind: from the W (260 degrees) at 3 MPH (3 KT):0
Visibility: 10 mile(s):0
Sky conditions: mostly cloudy
Temperature: 66 F (19 C)
Dew Point: 48 F (9 C)
Relative Humidity: 52%
Pressure (altimeter): 30.14 in. Hg (1020 hPa)
ob: KGYR 062347Z 26003KT 10SM BKN200 BKN250 19/09 A3014
cycle: 0

Station Type Date Time Source
KGYR TAF UTC NOAA

Error!

Example: see airport list